createdAt,value
2023-03-15T00:01:18.835Z,1.83
2023-03-15T00:03:45.971Z,1.70
2023-03-15T00:06:13.160Z,1.60
2023-03-15T00:08:40.217Z,1.90
2023-03-15T00:11:07.323Z,1.90
2023-03-15T00:13:34.408Z,2.10
2023-03-15T00:16:03.388Z,2.07
2023-03-15T00:18:30.635Z,2.20
2023-03-15T00:20:57.952Z,2.73
2023-03-15T00:23:25.078Z,2.00
2023-03-15T00:25:52.758Z,2.77
2023-03-15T00:28:19.954Z,1.50
2023-03-15T00:30:47.069Z,1.30
2023-03-15T00:33:16.532Z,1.90
2023-03-15T00:35:44.980Z,1.37
2023-03-15T00:38:12.112Z,2.23
2023-03-15T00:40:41.949Z,1.70
2023-03-15T00:43:08.554Z,1.90
2023-03-15T00:45:35.154Z,1.50
2023-03-15T00:48:02.232Z,1.73
2023-03-15T00:50:29.313Z,2.53
2023-03-15T00:52:56.350Z,1.50
2023-03-15T00:55:23.010Z,2.97
2023-03-15T00:57:50.062Z,2.03
2023-03-15T01:00:20.559Z,2.00
2023-03-15T01:02:47.891Z,1.90
2023-03-15T01:05:15.098Z,1.70
2023-03-15T01:07:42.081Z,2.20
2023-03-15T01:10:09.324Z,1.93
2023-03-15T01:12:36.449Z,1.60
2023-03-15T01:15:07.073Z,2.20
2023-03-15T01:17:34.266Z,2.23
2023-03-15T01:20:02.516Z,2.60
2023-03-15T01:22:29.571Z,2.27
2023-03-15T01:24:56.701Z,1.60
2023-03-15T01:27:23.763Z,1.70
2023-03-15T01:29:52.323Z,1.83
2023-03-15T01:32:19.354Z,1.70
2023-03-15T01:34:46.636Z,1.80
2023-03-15T01:37:14.525Z,1.90
2023-03-15T01:39:44.178Z,1.90
2023-03-15T01:42:11.708Z,1.83
2023-03-15T01:44:54.851Z,1.67
2023-03-15T01:47:22.234Z,1.93
2023-03-15T01:49:56.373Z,1.40
2023-03-15T01:52:31.824Z,2.60
2023-03-15T01:55:11.045Z,1.87
2023-03-15T01:57:49.711Z,1.50
2023-03-15T02:00:19.791Z,1.33
2023-03-15T02:03:08.377Z,1.30
2023-03-15T02:05:46.144Z,1.27
2023-03-15T02:08:19.254Z,1.43
2023-03-15T02:10:53.318Z,2.57
2023-03-15T02:13:23.396Z,1.27
2023-03-15T02:15:53.448Z,1.40
2023-03-15T02:18:26.149Z,1.30
2023-03-15T02:21:08.624Z,1.43
2023-03-15T02:23:35.818Z,1.60
2023-03-15T02:26:09.506Z,1.60
2023-03-15T02:28:36.816Z,1.77
2023-03-15T02:31:04.060Z,1.40
2023-03-15T02:33:55.453Z,1.90
2023-03-15T02:36:27.791Z,1.80
2023-03-15T02:38:56.146Z,1.77
2023-03-15T02:41:33.363Z,1.70
2023-03-15T02:44:08.391Z,2.10
2023-03-15T02:46:36.430Z,2.10
2023-03-15T02:49:04.555Z,1.90
2023-03-15T02:51:34.123Z,1.90
2023-03-15T02:54:01.229Z,2.27
2023-03-15T02:56:28.276Z,2.80
2023-03-15T02:58:55.415Z,2.27
2023-03-15T03:01:23.694Z,2.50
2023-03-15T03:03:50.554Z,2.60
2023-03-15T03:06:17.851Z,2.87
2023-03-15T03:08:47.773Z,2.93
2023-03-15T03:11:17.824Z,3.37
2023-03-15T03:13:45.163Z,3.50
2023-03-15T03:16:12.000Z,3.73
2023-03-15T03:18:39.512Z,3.60
2023-03-15T03:21:08.369Z,4.00
2023-03-15T03:23:36.133Z,3.57
2023-03-15T03:26:03.957Z,4.40
2023-03-15T03:28:33.059Z,4.43
2023-03-15T03:31:01.377Z,4.37
2023-03-15T03:33:29.214Z,5.33
2023-03-15T03:36:02.093Z,4.60
2023-03-15T03:38:29.565Z,4.97
2023-03-15T03:40:59.115Z,5.60
2023-03-15T03:43:28.989Z,5.10
2023-03-15T03:45:56.264Z,6.27
2023-03-15T03:48:23.478Z,5.40
2023-03-15T03:50:50.596Z,5.83
2023-03-15T03:53:17.764Z,5.73
2023-03-15T03:55:46.355Z,6.10
2023-03-15T03:58:17.503Z,5.60
2023-03-15T04:00:50.106Z,5.60
2023-03-15T04:03:17.163Z,6.33
2023-03-15T04:05:48.270Z,6.23
2023-03-15T04:08:19.066Z,6.70
2023-03-15T04:10:46.164Z,6.17
2023-03-15T04:13:13.808Z,6.27
2023-03-15T04:15:41.231Z,6.63
2023-03-15T04:18:09.834Z,6.83
2023-03-15T04:20:46.656Z,6.53
2023-03-15T04:23:15.167Z,6.50
2023-03-15T04:25:58.128Z,6.70
2023-03-15T04:28:43.716Z,6.27
2023-03-15T04:31:29.636Z,6.53
2023-03-15T04:34:19.165Z,7.43
2023-03-15T04:37:00.915Z,7.30
2023-03-15T04:40:01.122Z,7.07
2023-03-15T04:42:39.966Z,7.23
2023-03-15T04:45:31.621Z,5.73
2023-03-15T04:47:58.607Z,7.10
2023-03-15T04:50:51.306Z,8.13
2023-03-15T04:53:31.950Z,8.27
2023-03-15T04:56:29.084Z,7.47
2023-03-15T04:59:20.725Z,6.53
2023-03-15T05:01:55.359Z,5.93
2023-03-15T05:04:40.843Z,6.80
2023-03-15T05:07:37.798Z,5.77
2023-03-15T05:10:20.493Z,6.17
2023-03-15T05:13:02.256Z,5.97
2023-03-15T05:15:55.459Z,5.67
2023-03-15T05:18:36.922Z,5.77
2023-03-15T05:21:28.739Z,4.60
2023-03-15T05:24:22.183Z,4.50
2023-03-15T05:27:09.293Z,3.40
2023-03-15T05:30:03.728Z,4.57
2023-03-15T05:32:57.881Z,3.23
2023-03-15T05:35:39.304Z,3.57
2023-03-15T05:38:29.274Z,3.30
2023-03-15T05:41:07.642Z,3.80
2023-03-15T05:43:50.440Z,2.93
2023-03-15T05:46:34.098Z,3.23
2023-03-15T05:49:14.704Z,3.17
2023-03-15T05:51:49.675Z,3.70
2023-03-15T05:54:43.299Z,3.80
2023-03-15T05:57:28.744Z,2.23
2023-03-15T06:00:06.749Z,3.30
2023-03-15T06:02:44.199Z,3.23
2023-03-15T06:05:23.864Z,3.37
2023-03-15T06:07:51.514Z,2.83
2023-03-15T06:10:19.674Z,2.93
2023-03-15T06:12:46.993Z,3.20
2023-03-15T06:15:15.696Z,3.93
2023-03-15T06:17:42.857Z,3.10
2023-03-15T06:20:10.441Z,3.30
2023-03-15T06:22:38.238Z,3.57
2023-03-15T06:25:12.286Z,3.00
2023-03-15T06:27:39.827Z,2.70
2023-03-15T06:30:07.800Z,3.10
2023-03-15T06:32:34.918Z,3.10
2023-03-15T06:35:01.996Z,2.50
2023-03-15T06:37:35.378Z,3.27
2023-03-15T06:40:07.381Z,3.07
2023-03-15T06:42:34.640Z,3.10
2023-03-15T06:45:01.995Z,2.90
2023-03-15T06:47:29.187Z,3.87
2023-03-15T06:49:56.986Z,3.50
2023-03-15T06:52:24.381Z,2.97
2023-03-15T06:54:51.512Z,3.10
2023-03-15T06:57:18.604Z,3.10
2023-03-15T06:59:45.629Z,3.40
2023-03-15T07:02:15.266Z,3.70
2023-03-15T07:04:42.448Z,3.50
2023-03-15T07:07:09.512Z,4.00
2023-03-15T07:09:36.571Z,4.50
2023-03-15T07:12:03.384Z,3.13
2023-03-15T07:14:30.531Z,3.00
2023-03-15T07:16:57.572Z,3.40
2023-03-15T07:19:24.605Z,3.20
2023-03-15T07:21:51.812Z,2.80
2023-03-15T07:24:18.920Z,3.77
2023-03-15T07:26:45.574Z,3.67
2023-03-15T07:29:12.890Z,3.10
2023-03-15T07:31:39.907Z,3.53
2023-03-15T07:34:06.954Z,3.43
2023-03-15T07:36:33.518Z,3.30
2023-03-15T07:39:01.623Z,4.80
2023-03-15T07:41:28.751Z,3.30
2023-03-15T07:44:05.403Z,3.17
2023-03-15T07:46:34.287Z,3.20
2023-03-15T07:49:01.564Z,3.10
2023-03-15T07:51:28.691Z,3.63
2023-03-15T07:53:55.519Z,3.93
2023-03-15T07:56:22.539Z,3.80
2023-03-15T07:58:49.879Z,4.00
2023-03-15T08:01:16.633Z,3.60
2023-03-15T08:03:43.734Z,2.93
2023-03-15T08:06:10.798Z,2.90
2023-03-15T08:08:37.869Z,3.20
2023-03-15T08:11:05.306Z,2.83
2023-03-15T08:13:32.345Z,3.07
2023-03-15T08:15:59.470Z,3.40
2023-03-15T08:18:28.879Z,2.50
2023-03-15T08:20:56.009Z,3.60
2023-03-15T08:23:23.210Z,3.40
2023-03-15T08:25:50.301Z,2.83
2023-03-15T08:28:17.457Z,2.67
2023-03-15T08:30:44.500Z,4.33
2023-03-15T08:33:12.394Z,3.83
2023-03-15T08:35:39.474Z,2.97
2023-03-15T08:38:06.151Z,2.60
2023-03-15T08:40:33.213Z,2.37
2023-03-15T08:43:00.280Z,2.30
2023-03-15T08:45:27.522Z,2.87
2023-03-15T08:48:00.915Z,2.47
2023-03-15T08:50:28.589Z,2.57
2023-03-15T08:52:55.733Z,2.80
2023-03-15T08:55:22.662Z,3.37
2023-03-15T08:57:49.758Z,2.30
2023-03-15T09:00:25.815Z,3.20
2023-03-15T09:02:53.268Z,2.53
2023-03-15T09:05:21.380Z,2.83
2023-03-15T09:07:48.241Z,3.30
2023-03-15T09:10:16.902Z,2.67
2023-03-15T09:12:48.895Z,3.07
2023-03-15T09:15:16.140Z,3.27
2023-03-15T09:17:43.324Z,2.70
2023-03-15T09:20:16.175Z,3.17
2023-03-15T09:22:44.013Z,3.57
2023-03-15T09:25:11.310Z,3.10
2023-03-15T09:27:38.541Z,3.17
2023-03-15T09:30:05.912Z,4.00
2023-03-15T09:32:36.329Z,2.47
2023-03-15T09:35:04.886Z,3.70
2023-03-15T09:37:32.012Z,3.83
2023-03-15T09:39:59.069Z,3.77
2023-03-15T09:42:41.780Z,3.37
2023-03-15T09:45:22.613Z,4.03
2023-03-15T09:48:14.274Z,3.17
2023-03-15T09:51:04.404Z,4.20
2023-03-15T09:53:43.179Z,2.97
2023-03-15T09:56:37.481Z,2.70
2023-03-15T09:59:05.689Z,3.20
2023-03-15T10:01:38.471Z,3.47
2023-03-15T10:04:23.638Z,3.47
2023-03-15T10:06:55.161Z,3.30
2023-03-15T10:09:24.136Z,3.20
2023-03-15T10:12:08.988Z,2.93
2023-03-15T10:14:57.273Z,2.60
2023-03-15T10:17:43.550Z,2.60
2023-03-15T10:20:18.868Z,2.53
2023-03-15T10:23:22.730Z,3.30
2023-03-15T10:25:51.543Z,2.77
2023-03-15T10:28:28.533Z,2.47
2023-03-15T10:31:00.018Z,3.73
2023-03-15T10:33:31.998Z,2.70
2023-03-15T10:36:10.524Z,3.43
2023-03-15T10:38:38.918Z,2.50
2023-03-15T10:41:06.779Z,2.50
2023-03-15T10:43:37.226Z,2.37
2023-03-15T10:46:11.141Z,2.63
2023-03-15T10:48:40.202Z,2.97
2023-03-15T10:51:28.904Z,2.13
2023-03-15T10:54:07.936Z,2.43
2023-03-15T10:56:59.271Z,2.87
2023-03-15T10:59:28.897Z,4.07
2023-03-15T11:02:16.482Z,3.40
2023-03-15T11:04:47.802Z,2.77
2023-03-15T11:07:14.399Z,6.87
2023-03-15T11:09:51.044Z,2.20
2023-03-15T11:12:24.262Z,2.60
2023-03-15T11:14:57.645Z,2.83
2023-03-15T11:17:28.091Z,2.93
2023-03-15T11:20:11.068Z,2.40
2023-03-15T11:22:38.105Z,2.53
2023-03-15T11:25:05.620Z,2.27
2023-03-15T11:27:32.635Z,2.10
2023-03-15T11:30:01.766Z,1.97
2023-03-15T11:32:31.766Z,2.80
2023-03-15T11:35:05.901Z,2.90
2023-03-15T11:37:45.707Z,2.50
2023-03-15T11:40:22.817Z,2.57
2023-03-15T11:43:11.214Z,2.80
2023-03-15T11:45:47.829Z,1.70
2023-03-15T11:49:02.341Z,2.00
2023-03-15T11:51:33.420Z,1.83
2023-03-15T11:54:17.136Z,1.50
2023-03-15T11:56:43.724Z,1.80
2023-03-15T11:59:19.837Z,1.33
2023-03-15T12:01:56.355Z,1.67
2023-03-15T12:04:38.123Z,1.70
2023-03-15T12:07:12.763Z,1.63
2023-03-15T12:09:47.639Z,1.93
2023-03-15T12:12:14.655Z,1.40
2023-03-15T12:14:41.491Z,0.87
2023-03-15T12:17:28.972Z,1.40
2023-03-15T12:20:11.750Z,1.93
2023-03-15T12:22:43.316Z,1.70
2023-03-15T12:25:33.859Z,1.17
2023-03-15T12:28:08.766Z,1.17
2023-03-15T12:30:41.577Z,1.13
2023-03-15T12:33:17.770Z,1.10
2023-03-15T12:35:44.959Z,1.27
2023-03-15T12:38:20.728Z,0.90
2023-03-15T12:40:57.157Z,1.50
2023-03-15T12:43:43.264Z,1.27
2023-03-15T12:46:44.176Z,1.40
2023-03-15T12:49:29.568Z,0.80
2023-03-15T12:52:06.308Z,1.10
2023-03-15T12:54:48.696Z,0.67
2023-03-15T12:57:30.674Z,1.47
2023-03-15T13:00:15.086Z,1.23
2023-03-15T13:03:06.468Z,0.90
2023-03-15T13:05:37.429Z,0.80
2023-03-15T13:08:17.562Z,1.10
2023-03-15T13:11:02.878Z,0.97
2023-03-15T13:13:29.886Z,1.17
2023-03-15T13:16:15.354Z,1.00
2023-03-15T13:18:52.940Z,1.17
2023-03-15T13:21:39.656Z,0.90
2023-03-15T13:24:17.425Z,0.77
2023-03-15T13:26:52.380Z,0.97
2023-03-15T13:29:26.736Z,1.10
2023-03-15T13:32:02.556Z,0.87
2023-03-15T13:34:31.978Z,6.90
2023-03-15T13:37:02.087Z,1.13
2023-03-15T13:39:34.817Z,0.77
2023-03-15T13:42:16.570Z,10.50
2023-03-15T13:44:43.861Z,1.60
2023-03-15T13:47:20.226Z,1.50
2023-03-15T13:49:47.274Z,1.60
2023-03-15T13:52:14.821Z,0.67
2023-03-15T13:54:42.093Z,3.23
2023-03-15T13:57:10.767Z,1.30
2023-03-15T13:59:44.234Z,1.27
2023-03-15T14:02:28.215Z,1.73
2023-03-15T14:05:03.555Z,2.90
2023-03-15T14:07:36.728Z,0.90
2023-03-15T14:10:10.152Z,0.87
2023-03-15T14:12:37.261Z,8.00
2023-03-15T14:15:03.976Z,0.90
2023-03-15T14:17:31.454Z,0.97
2023-03-15T14:20:08.865Z,3.00
2023-03-15T14:22:36.777Z,0.73
2023-03-15T14:25:04.167Z,1.33
2023-03-15T14:27:32.262Z,1.30
2023-03-15T14:30:01.653Z,2.60
2023-03-15T14:32:34.499Z,1.13
2023-03-15T14:35:23.249Z,1.10
2023-03-15T14:38:07.774Z,5.07
2023-03-15T14:40:39.115Z,2.90
2023-03-15T14:43:07.156Z,1.23
2023-03-15T14:45:35.859Z,1.93
2023-03-15T14:48:08.291Z,0.70
2023-03-15T14:50:41.219Z,1.10
2023-03-15T14:53:09.685Z,0.67
2023-03-15T14:55:37.313Z,0.90
2023-03-15T14:58:13.118Z,0.80
2023-03-15T15:00:40.260Z,0.67
2023-03-15T15:03:19.709Z,1.03
2023-03-15T15:05:47.042Z,0.73
2023-03-15T15:08:17.919Z,0.60
2023-03-15T15:10:46.912Z,1.00
2023-03-15T15:13:18.542Z,0.73
2023-03-15T15:15:55.020Z,0.67
2023-03-15T15:18:24.621Z,0.80
2023-03-15T15:20:54.220Z,1.10
2023-03-15T15:23:28.036Z,0.63
2023-03-15T15:25:58.549Z,0.60
2023-03-15T15:28:36.444Z,1.10
2023-03-15T15:31:05.688Z,0.70
2023-03-15T15:33:33.786Z,0.80
2023-03-15T15:36:00.954Z,0.70
2023-03-15T15:38:38.550Z,1.00
2023-03-15T15:41:05.996Z,0.70
2023-03-15T15:43:33.752Z,0.83
2023-03-15T15:46:01.829Z,0.83
2023-03-15T15:48:29.154Z,0.90
2023-03-15T15:50:56.177Z,0.80
2023-03-15T15:53:23.404Z,4.20
2023-03-15T15:55:50.108Z,1.00
2023-03-15T15:58:17.456Z,1.10
2023-03-15T16:00:44.708Z,0.90
2023-03-15T16:03:16.542Z,0.70
2023-03-15T16:05:43.739Z,0.80
2023-03-15T16:08:22.243Z,0.80
2023-03-15T16:10:49.436Z,2.10
2023-03-15T16:13:16.724Z,0.73
2023-03-15T16:15:44.361Z,1.00
2023-03-15T16:18:12.191Z,0.73
2023-03-15T16:20:40.787Z,0.93
2023-03-15T16:23:08.070Z,1.40
2023-03-15T16:25:36.172Z,1.13
2023-03-15T16:28:04.331Z,1.20
2023-03-15T16:30:32.221Z,0.80
2023-03-15T16:32:59.369Z,3.13
2023-03-15T16:35:32.610Z,0.67
2023-03-15T16:37:59.836Z,1.10
2023-03-15T16:40:29.397Z,1.33
2023-03-15T16:42:56.721Z,1.40
2023-03-15T16:45:24.241Z,1.00
2023-03-15T16:47:51.397Z,1.00
2023-03-15T16:50:18.757Z,1.03
2023-03-15T16:52:47.895Z,1.30
2023-03-15T16:55:16.994Z,1.30
2023-03-15T16:57:43.951Z,1.50
2023-03-15T17:00:17.061Z,1.20
2023-03-15T17:02:46.730Z,1.50
2023-03-15T17:05:20.803Z,1.70
2023-03-15T17:07:49.088Z,2.03
2023-03-15T17:10:25.553Z,1.70
2023-03-15T17:12:53.609Z,1.60
2023-03-15T17:15:23.809Z,1.50
2023-03-15T17:17:51.794Z,1.37
2023-03-15T17:20:22.533Z,1.03
2023-03-15T17:22:51.390Z,1.50
2023-03-15T17:25:18.625Z,2.13
2023-03-15T17:27:47.280Z,1.27
2023-03-15T17:30:14.501Z,1.40
2023-03-15T17:32:41.616Z,1.37
2023-03-15T17:35:09.082Z,0.93
2023-03-15T17:37:36.628Z,1.10
2023-03-15T17:40:10.211Z,0.70
2023-03-15T17:42:37.274Z,1.57
2023-03-15T17:45:16.031Z,1.10
2023-03-15T17:47:42.653Z,1.20
2023-03-15T17:50:10.133Z,0.97
2023-03-15T17:52:37.021Z,1.03
2023-03-15T17:55:03.906Z,1.20
2023-03-15T17:57:30.939Z,1.57
2023-03-15T17:59:57.973Z,1.33
2023-03-15T18:02:25.275Z,1.10
2023-03-15T18:04:52.350Z,1.00
2023-03-15T18:07:19.358Z,1.53
2023-03-15T18:09:46.445Z,0.50
2023-03-15T18:12:15.404Z,0.63
2023-03-15T18:14:42.623Z,0.73
2023-03-15T18:17:10.642Z,8.27
2023-03-15T18:19:37.666Z,3.07
2023-03-15T18:22:04.316Z,2.60
2023-03-15T18:24:34.113Z,2.37
2023-03-15T18:27:01.723Z,1.30
2023-03-15T18:29:28.368Z,1.20
2023-03-15T18:31:55.505Z,1.37
2023-03-15T18:34:23.082Z,1.03
2023-03-15T18:36:50.171Z,1.27
2023-03-15T18:39:17.303Z,1.50
2023-03-15T18:41:44.336Z,1.17
2023-03-15T18:44:11.400Z,1.40
2023-03-15T18:46:38.602Z,2.37
2023-03-15T18:49:05.833Z,2.50
2023-03-15T18:51:32.947Z,1.97
2023-03-15T18:53:59.988Z,1.50
2023-03-15T18:56:30.752Z,1.80
2023-03-15T18:58:57.819Z,4.53
2023-03-15T19:01:24.961Z,3.37
2023-03-15T19:03:52.992Z,2.80
2023-03-15T19:06:20.700Z,1.90
2023-03-15T19:08:53.136Z,1.50
2023-03-15T19:11:21.088Z,1.10
2023-03-15T19:13:51.291Z,1.30
2023-03-15T19:16:19.089Z,1.07
2023-03-15T19:18:46.213Z,1.00
2023-03-15T19:21:14.223Z,0.80
2023-03-15T19:23:41.360Z,1.30
2023-03-15T19:26:08.904Z,1.17
2023-03-15T19:28:36.701Z,0.93
2023-03-15T19:31:03.807Z,10.63
2023-03-15T19:33:30.964Z,1.57
2023-03-15T19:35:58.029Z,1.73
2023-03-15T19:38:25.156Z,1.30
2023-03-15T19:40:55.167Z,1.20
2023-03-15T19:43:23.492Z,1.00
2023-03-15T19:45:51.228Z,0.80
2023-03-15T19:48:18.300Z,1.20
2023-03-15T19:50:45.391Z,0.80
2023-03-15T19:53:12.469Z,1.93
2023-03-15T19:55:39.485Z,0.77
2023-03-15T19:58:06.691Z,0.60
2023-03-15T20:00:33.922Z,1.10
2023-03-15T20:03:00.991Z,1.30
2023-03-15T20:05:27.919Z,0.97
2023-03-15T20:07:54.977Z,0.83
2023-03-15T20:10:22.430Z,1.10
2023-03-15T20:12:49.753Z,0.90
2023-03-15T20:15:18.955Z,1.60
2023-03-15T20:17:45.826Z,1.77
2023-03-15T20:20:13.671Z,1.63
2023-03-15T20:22:42.699Z,2.63
2023-03-15T20:25:11.258Z,1.90
2023-03-15T20:27:38.155Z,2.00
2023-03-15T20:30:07.044Z,1.30
2023-03-15T20:32:34.197Z,1.10
2023-03-15T20:35:02.205Z,1.10
2023-03-15T20:37:31.025Z,1.10
2023-03-15T20:39:58.100Z,1.17
2023-03-15T20:42:25.211Z,1.10
2023-03-15T20:44:52.728Z,1.27
2023-03-15T20:47:19.364Z,2.23
2023-03-15T20:49:46.442Z,1.23
2023-03-15T20:52:13.496Z,1.23
2023-03-15T20:54:40.554Z,1.43
2023-03-15T20:57:07.603Z,1.93
2023-03-15T20:59:34.635Z,1.70
2023-03-15T21:02:02.868Z,1.47
2023-03-15T21:04:29.903Z,1.80
2023-03-15T21:06:57.148Z,1.90
2023-03-15T21:09:24.159Z,1.43
2023-03-15T21:11:51.508Z,1.67
2023-03-15T21:14:18.664Z,1.50
2023-03-15T21:16:45.859Z,2.07
2023-03-15T21:19:13.066Z,1.57
2023-03-15T21:21:43.292Z,1.33
2023-03-15T21:24:12.247Z,1.60
2023-03-15T21:26:39.137Z,1.10
2023-03-15T21:29:06.088Z,1.70
2023-03-15T21:31:33.215Z,1.40
2023-03-15T21:34:00.420Z,1.30
2023-03-15T21:36:27.510Z,1.37
2023-03-15T21:38:54.993Z,1.40
2023-03-15T21:41:22.476Z,1.30
2023-03-15T21:43:49.197Z,1.53
2023-03-15T21:46:16.471Z,1.30
2023-03-15T21:48:43.588Z,1.43
2023-03-15T21:51:10.980Z,1.37
2023-03-15T21:53:38.595Z,1.43
2023-03-15T21:56:05.578Z,1.40
2023-03-15T21:58:33.177Z,1.33
2023-03-15T22:01:04.122Z,1.37
2023-03-15T22:03:32.057Z,1.33
2023-03-15T22:05:58.824Z,1.80
2023-03-15T22:08:25.963Z,1.80
2023-03-15T22:10:57.757Z,1.50
2023-03-15T22:13:25.060Z,1.13
2023-03-15T22:15:54.993Z,1.73
2023-03-15T22:18:22.424Z,1.53
2023-03-15T22:20:51.013Z,1.03
2023-03-15T22:23:18.446Z,1.40
2023-03-15T22:25:45.500Z,1.20
2023-03-15T22:28:12.799Z,1.43
2023-03-15T22:30:39.874Z,1.37
2023-03-15T22:33:07.008Z,1.47
2023-03-15T22:35:34.179Z,1.40
2023-03-15T22:38:09.618Z,1.40
2023-03-15T22:40:38.650Z,1.20
2023-03-15T22:43:07.460Z,1.60
2023-03-15T22:45:34.519Z,1.10
2023-03-15T22:48:01.170Z,1.47
2023-03-15T22:50:28.699Z,1.10
2023-03-15T22:52:56.050Z,1.30
2023-03-15T22:55:23.576Z,1.10
2023-03-15T22:57:50.901Z,1.13
2023-03-15T23:00:21.061Z,1.20
2023-03-15T23:02:47.731Z,1.10
2023-03-15T23:05:14.962Z,1.17
2023-03-15T23:07:42.131Z,1.87
2023-03-15T23:10:09.859Z,1.60
2023-03-15T23:12:37.018Z,1.40
2023-03-15T23:15:04.804Z,1.37
2023-03-15T23:17:31.715Z,1.50
2023-03-15T23:19:58.422Z,1.13
2023-03-15T23:22:25.488Z,1.60
2023-03-15T23:24:52.396Z,1.50
2023-03-15T23:27:19.451Z,1.17
2023-03-15T23:29:54.436Z,1.60
2023-03-15T23:32:23.145Z,1.37
2023-03-15T23:34:50.013Z,1.40
2023-03-15T23:37:17.472Z,1.77
2023-03-15T23:39:44.523Z,1.53
2023-03-15T23:42:11.958Z,1.97
2023-03-15T23:44:39.086Z,1.87
2023-03-15T23:47:06.439Z,1.77
2023-03-15T23:49:33.806Z,2.17
2023-03-15T23:52:05.678Z,2.20
2023-03-15T23:54:39.279Z,1.50
2023-03-15T23:57:07.514Z,1.93
2023-03-15T23:59:36.072Z,1.60
